createdAt,value
2019-03-01T00:01:19.224Z,12.53
2019-03-01T00:03:59.578Z,10.83
2019-03-01T00:07:29.597Z,11.13
2019-03-01T00:10:37.178Z,10.23
2019-03-01T00:14:06.274Z,9.40
2019-03-01T00:17:15.988Z,8.60
2019-03-01T00:20:21.389Z,10.33
2019-03-01T00:23:33.605Z,9.80
2019-03-01T00:26:44.050Z,9.77
2019-03-01T00:29:56.132Z,10.13
2019-03-01T00:32:53.441Z,9.53
2019-03-01T00:36:03.556Z,9.53
2019-03-01T00:39:15.694Z,9.70
2019-03-01T00:42:07.659Z,9.10
2019-03-01T00:44:42.763Z,8.30
2019-03-01T00:47:15.599Z,8.33
2019-03-01T00:49:48.627Z,7.97
2019-03-01T00:52:21.454Z,8.77
2019-03-01T00:54:54.565Z,8.00
2019-03-01T00:57:27.619Z,8.37
2019-03-01T01:00:00.651Z,8.40
2019-03-01T01:02:33.647Z,8.60
2019-03-01T01:05:06.501Z,8.27
2019-03-01T01:07:39.705Z,8.67
2019-03-01T01:10:12.863Z,9.47
2019-03-01T01:12:45.752Z,10.67
2019-03-01T01:15:18.505Z,10.77
2019-03-01T01:17:51.445Z,10.57
2019-03-01T01:20:24.601Z,10.80
2019-03-01T01:22:57.594Z,10.27
2019-03-01T01:25:30.403Z,8.67
2019-03-01T01:28:03.158Z,8.20
2019-03-01T01:30:36.035Z,8.40
2019-03-01T01:33:08.857Z,7.23
2019-03-01T01:35:41.864Z,7.63
2019-03-01T01:38:14.823Z,7.77
2019-03-01T01:40:47.635Z,7.10
2019-03-01T01:43:20.495Z,7.30
2019-03-01T01:45:53.410Z,6.90
2019-03-01T01:48:26.300Z,7.83
2019-03-01T01:50:59.379Z,6.80
2019-03-01T01:53:32.318Z,8.33
2019-03-01T01:56:05.225Z,7.60
2019-03-01T01:58:38.223Z,8.30
2019-03-01T02:01:11.244Z,9.60
2019-03-01T02:03:44.115Z,9.20
2019-03-01T02:06:17.001Z,9.20
2019-03-01T02:08:49.819Z,9.10
2019-03-01T02:11:23.023Z,10.10
2019-03-01T02:13:55.872Z,9.67
2019-03-01T02:16:28.653Z,9.90
2019-03-01T02:19:01.589Z,11.10
2019-03-01T02:21:36.219Z,14.07
2019-03-01T02:24:09.074Z,16.60
2019-03-01T02:26:41.987Z,17.17
2019-03-01T02:29:14.839Z,18.93
2019-03-01T02:31:58.170Z,19.00
2019-03-01T02:34:31.086Z,19.33
2019-03-01T02:37:03.851Z,19.17
2019-03-01T02:39:36.898Z,19.90
2019-03-01T02:42:09.743Z,16.33
2019-03-01T02:44:42.595Z,15.90
2019-03-01T02:47:15.538Z,13.33
2019-03-01T02:49:48.491Z,12.47
2019-03-01T02:52:21.675Z,11.83
2019-03-01T02:54:54.541Z,12.23
2019-03-01T02:57:27.422Z,13.67
2019-03-01T03:00:00.399Z,13.87
2019-03-01T03:02:33.629Z,13.20
2019-03-01T03:05:06.734Z,12.80
2019-03-01T03:07:59.558Z,13.40
2019-03-01T03:10:32.613Z,13.63
2019-03-01T03:13:07.921Z,14.97
2019-03-01T03:15:43.252Z,14.87
2019-03-01T03:18:16.116Z,15.97
2019-03-01T03:20:49.010Z,16.77
2019-03-01T03:23:21.785Z,16.57
2019-03-01T03:25:54.855Z,17.30
2019-03-01T03:28:27.841Z,19.30
2019-03-01T03:31:00.865Z,21.30
2019-03-01T03:33:33.935Z,23.83
2019-03-01T03:36:07.129Z,28.07
2019-03-01T03:38:40.171Z,29.50
2019-03-01T03:41:13.282Z,24.67
2019-03-01T03:43:46.182Z,27.00
2019-03-01T03:46:19.177Z,28.13
2019-03-01T03:48:51.992Z,29.27
2019-03-01T03:51:25.121Z,26.23
2019-03-01T03:53:58.059Z,25.20
2019-03-01T03:56:31.105Z,27.50
2019-03-01T03:59:04.270Z,20.63
2019-03-01T04:01:37.378Z,22.07
2019-03-01T04:04:10.362Z,20.53
2019-03-01T04:06:43.259Z,17.27
2019-03-01T04:09:16.109Z,19.43
2019-03-01T04:11:48.993Z,17.63
2019-03-01T04:14:21.836Z,14.50
2019-03-01T04:16:55.012Z,14.77
2019-03-01T04:19:28.031Z,14.47
2019-03-01T04:22:00.919Z,13.77
2019-03-01T04:24:34.133Z,13.73
2019-03-01T04:27:07.100Z,13.73
2019-03-01T04:29:39.876Z,14.47
2019-03-01T04:32:12.857Z,17.20
2019-03-01T04:34:45.629Z,15.40
2019-03-01T04:37:18.428Z,18.03
2019-03-01T04:39:51.371Z,18.97
2019-03-01T04:42:24.278Z,19.13
2019-03-01T04:44:57.102Z,20.43
2019-03-01T04:47:29.883Z,23.27
2019-03-01T04:50:04.063Z,22.00
2019-03-01T04:52:37.847Z,21.60
2019-03-01T04:55:18.720Z,23.10
2019-03-01T04:57:51.466Z,21.37
2019-03-01T05:00:24.581Z,24.40
2019-03-01T05:02:57.692Z,22.93
2019-03-01T05:05:30.560Z,24.10
2019-03-01T05:08:03.696Z,23.37
2019-03-01T05:10:36.678Z,24.30
2019-03-01T05:13:09.418Z,24.77
2019-03-01T05:15:43.313Z,22.63
2019-03-01T05:18:16.079Z,23.60
2019-03-01T05:20:49.061Z,23.47
2019-03-01T05:23:21.899Z,21.50
2019-03-01T05:25:54.788Z,23.87
2019-03-01T05:28:27.648Z,23.97
2019-03-01T05:31:00.733Z,22.97
2019-03-01T05:33:33.724Z,26.33
2019-03-01T05:36:06.595Z,22.97
2019-03-01T05:38:39.354Z,26.70
2019-03-01T05:41:12.082Z,26.50
2019-03-01T05:43:45.192Z,25.23
2019-03-01T05:46:18.207Z,29.17
2019-03-01T05:48:51.224Z,29.40
2019-03-01T05:51:24.283Z,31.00
2019-03-01T05:53:57.387Z,29.67
2019-03-01T05:56:30.166Z,31.97
2019-03-01T05:59:17.301Z,29.57
2019-03-01T06:02:29.780Z,28.07
2019-03-01T06:05:08.499Z,29.00
2019-03-01T06:08:23.713Z,26.87
2019-03-01T06:11:30.924Z,25.50
2019-03-01T06:14:28.509Z,27.77
2019-03-01T06:17:48.813Z,28.10
2019-03-01T06:21:02.140Z,26.57
2019-03-01T06:24:32.012Z,26.27
2019-03-01T06:27:35.962Z,28.60
2019-03-01T06:30:53.563Z,28.23
2019-03-01T06:34:03.644Z,26.63
2019-03-01T06:36:51.958Z,25.20
2019-03-01T06:39:56.006Z,27.20
2019-03-01T06:43:02.232Z,27.00
2019-03-01T06:46:15.633Z,29.37
2019-03-01T06:49:14.079Z,29.53
2019-03-01T06:51:47.270Z,29.73
2019-03-01T06:54:20.404Z,32.10
2019-03-01T06:56:53.522Z,31.87
2019-03-01T06:59:26.605Z,30.80
2019-03-01T07:01:59.528Z,31.57
2019-03-01T07:04:32.469Z,35.33
2019-03-01T07:07:05.481Z,37.80
2019-03-01T07:09:38.989Z,39.07
2019-03-01T07:12:11.775Z,37.87
2019-03-01T07:14:44.614Z,39.60
2019-03-01T07:17:17.658Z,36.47
2019-03-01T07:19:50.556Z,41.03
2019-03-01T07:22:23.766Z,38.30
2019-03-01T07:24:56.807Z,36.23
2019-03-01T07:27:29.880Z,39.60
2019-03-01T07:30:03.119Z,44.70
2019-03-01T07:32:36.221Z,41.17
2019-03-01T07:35:09.308Z,44.30
2019-03-01T07:37:42.717Z,47.93
2019-03-01T07:40:15.577Z,50.80
2019-03-01T07:42:48.615Z,50.43
2019-03-01T07:45:21.525Z,48.77
2019-03-01T07:47:54.638Z,46.70
2019-03-01T07:50:27.558Z,51.27
2019-03-01T07:53:03.815Z,58.47
2019-03-01T07:55:35.348Z,56.30
2019-03-01T07:58:08.359Z,68.27
2019-03-01T08:00:41.320Z,72.40
2019-03-01T08:03:15.139Z,83.07
2019-03-01T08:05:48.735Z,96.47
2019-03-01T08:08:21.955Z,91.73
2019-03-01T08:10:56.336Z,97.90
2019-03-01T08:13:29.858Z,99.10
2019-03-01T08:16:03.199Z,101.87
2019-03-01T08:18:36.194Z,105.27
2019-03-01T08:21:22.713Z,115.37
2019-03-01T08:23:56.065Z,119.67
2019-03-01T08:26:30.807Z,117.83
2019-03-01T08:29:04.604Z,123.10
2019-03-01T08:31:37.724Z,119.20
2019-03-01T08:34:10.532Z,121.03
2019-03-01T08:36:43.668Z,117.50
2019-03-01T08:39:16.824Z,117.67
2019-03-01T08:41:49.946Z,110.77
2019-03-01T08:44:24.117Z,105.93
2019-03-01T08:46:57.272Z,104.47
2019-03-01T08:49:30.496Z,105.17
2019-03-01T08:52:03.361Z,109.37
2019-03-01T08:54:38.141Z,122.67
2019-03-01T08:57:11.615Z,117.00
2019-03-01T08:59:44.611Z,105.63
2019-03-01T09:02:20.542Z,100.83
2019-03-01T09:04:53.910Z,104.03
2019-03-01T09:07:27.227Z,107.63
2019-03-01T09:10:02.157Z,98.77
2019-03-01T09:12:36.116Z,102.63
2019-03-01T09:15:10.802Z,103.03
2019-03-01T09:17:43.720Z,97.40
2019-03-01T09:20:16.860Z,103.47
2019-03-01T09:22:49.940Z,97.57
2019-03-01T09:25:22.865Z,101.93
2019-03-01T09:27:57.587Z,97.87
2019-03-01T09:30:30.595Z,97.47
2019-03-01T09:33:04.516Z,101.70
2019-03-01T09:35:53.995Z,97.27
2019-03-01T09:38:27.142Z,99.23
2019-03-01T09:41:01.265Z,92.80
2019-03-01T09:43:34.826Z,100.57
2019-03-01T09:46:07.811Z,103.13
2019-03-01T09:48:40.876Z,102.47
2019-03-01T09:51:15.780Z,112.23
2019-03-01T09:53:48.963Z,113.70
2019-03-01T09:56:24.257Z,120.43
2019-03-01T09:58:57.290Z,115.40
2019-03-01T10:01:30.495Z,120.23
2019-03-01T10:04:03.850Z,110.93
2019-03-01T10:06:38.328Z,119.80
2019-03-01T10:09:11.534Z,116.63
2019-03-01T10:11:44.462Z,111.27
2019-03-01T10:14:17.435Z,108.33
2019-03-01T10:16:53.802Z,103.93
2019-03-01T10:19:27.175Z,108.03
2019-03-01T10:22:00.208Z,108.00
2019-03-01T10:24:33.258Z,91.57
2019-03-01T10:27:06.271Z,89.93
2019-03-01T10:29:39.217Z,88.37
2019-03-01T10:32:12.588Z,79.43
2019-03-01T10:34:45.566Z,96.70
2019-03-01T10:37:18.615Z,81.07
2019-03-01T10:39:55.433Z,90.90
2019-03-01T10:42:26.295Z,88.93
2019-03-01T10:44:59.408Z,83.63
2019-03-01T10:47:32.401Z,82.77
2019-03-01T10:50:05.892Z,83.87
2019-03-01T10:52:38.898Z,84.93
2019-03-01T10:55:14.692Z,79.83
2019-03-01T10:57:47.951Z,84.43
2019-03-01T11:00:22.484Z,79.60
2019-03-01T11:02:55.591Z,85.13
2019-03-01T11:05:28.565Z,83.20
2019-03-01T11:08:01.676Z,84.17
2019-03-01T11:10:35.621Z,74.23
2019-03-01T11:13:08.891Z,76.13
2019-03-01T11:15:41.787Z,70.77
2019-03-01T11:18:15.021Z,69.53
2019-03-01T11:20:48.153Z,63.97
2019-03-01T11:23:21.368Z,66.97
2019-03-01T11:25:54.527Z,66.03
2019-03-01T11:28:27.471Z,69.73
2019-03-01T11:31:00.738Z,65.83
2019-03-01T11:33:33.767Z,60.67
2019-03-01T11:36:07.032Z,62.90
2019-03-01T11:38:40.159Z,67.03
2019-03-01T11:41:13.119Z,64.97
2019-03-01T11:43:46.667Z,67.63
2019-03-01T11:46:19.707Z,67.50
2019-03-01T11:48:52.812Z,71.23
2019-03-01T11:51:27.779Z,67.90
2019-03-01T11:54:00.746Z,69.37
2019-03-01T11:56:33.693Z,63.40
2019-03-01T11:59:06.596Z,62.13
2019-03-01T12:01:39.814Z,60.30
2019-03-01T12:04:13.857Z,59.50
2019-03-01T12:06:48.725Z,70.43
2019-03-01T12:09:21.798Z,59.57
2019-03-01T12:11:54.859Z,56.87
2019-03-01T12:14:28.048Z,60.03
2019-03-01T12:17:01.068Z,58.43
2019-03-01T12:19:33.873Z,58.27
2019-03-01T12:22:06.812Z,62.93
2019-03-01T12:24:39.978Z,63.77
2019-03-01T12:27:12.934Z,56.50
2019-03-01T12:29:45.977Z,58.27
2019-03-01T12:32:18.940Z,63.20
2019-03-01T12:34:52.014Z,61.10
2019-03-01T12:37:25.310Z,65.90
2019-03-01T12:39:58.215Z,65.53
2019-03-01T12:42:31.408Z,67.77
2019-03-01T12:45:04.939Z,64.80
2019-03-01T12:47:50.310Z,64.00
2019-03-01T12:50:23.513Z,60.83
2019-03-01T12:52:56.514Z,64.90
2019-03-01T12:55:29.560Z,62.13
2019-03-01T12:58:02.554Z,61.37
2019-03-01T13:00:35.651Z,61.63
2019-03-01T13:03:09.796Z,62.37
2019-03-01T13:05:43.870Z,63.27
2019-03-01T13:08:17.351Z,62.07
2019-03-01T13:10:50.495Z,60.97
2019-03-01T13:13:23.359Z,65.93
2019-03-01T13:15:56.157Z,68.80
2019-03-01T13:18:29.058Z,64.77
2019-03-01T13:21:02.042Z,67.63
2019-03-01T13:23:37.570Z,64.67
2019-03-01T13:26:10.854Z,66.20
2019-03-01T13:28:47.060Z,62.03
2019-03-01T13:31:19.306Z,62.37
2019-03-01T13:33:52.383Z,64.90
2019-03-01T13:36:25.368Z,59.57
2019-03-01T13:38:58.444Z,62.17
2019-03-01T13:41:34.023Z,54.83
2019-03-01T13:44:06.432Z,55.27
2019-03-01T13:46:39.426Z,50.80
2019-03-01T13:49:12.278Z,52.90
2019-03-01T13:51:45.501Z,53.00
2019-03-01T13:54:18.730Z,52.37
2019-03-01T13:56:51.949Z,52.77
2019-03-01T13:59:25.190Z,47.73
2019-03-01T14:01:58.320Z,52.60
2019-03-01T14:04:31.372Z,52.33
2019-03-01T14:07:04.443Z,48.90
2019-03-01T14:09:38.340Z,47.07
2019-03-01T14:12:11.561Z,49.93
2019-03-01T14:14:44.469Z,50.03
2019-03-01T14:17:17.370Z,47.20
2019-03-01T14:19:50.428Z,43.47
2019-03-01T14:22:23.650Z,33.13
2019-03-01T14:24:56.794Z,34.97
2019-03-01T14:27:30.420Z,36.13
2019-03-01T14:30:03.821Z,36.07
2019-03-01T14:32:36.950Z,35.20
2019-03-01T14:35:10.115Z,36.13
2019-03-01T14:37:43.195Z,37.87
2019-03-01T14:40:19.197Z,38.13
2019-03-01T14:42:51.645Z,46.20
2019-03-01T14:45:25.814Z,43.30
2019-03-01T14:47:58.919Z,41.20
2019-03-01T14:50:33.612Z,44.93
2019-03-01T14:53:07.899Z,46.67
2019-03-01T14:55:44.247Z,50.50
2019-03-01T14:58:41.623Z,47.90
2019-03-01T15:01:23.204Z,52.43
2019-03-01T15:03:57.178Z,50.93
2019-03-01T15:06:30.165Z,54.17
2019-03-01T15:09:05.315Z,54.33
2019-03-01T15:11:41.125Z,55.47
2019-03-01T15:14:14.680Z,59.63
2019-03-01T15:16:47.560Z,62.33
2019-03-01T15:19:20.619Z,61.20
2019-03-01T15:21:53.777Z,62.83
2019-03-01T15:24:27.495Z,64.07
2019-03-01T15:27:04.067Z,64.80
2019-03-01T15:29:35.213Z,67.63
2019-03-01T15:32:09.774Z,69.80
2019-03-01T15:34:42.740Z,69.03
2019-03-01T15:37:16.636Z,68.47
2019-03-01T15:39:51.243Z,70.80
2019-03-01T15:42:25.931Z,69.73
2019-03-01T15:45:01.712Z,72.47
2019-03-01T15:47:34.150Z,71.00
2019-03-01T15:50:08.355Z,73.77
2019-03-01T15:52:41.326Z,74.30
2019-03-01T15:55:14.321Z,75.67
2019-03-01T15:57:47.597Z,65.33
2019-03-01T16:00:20.532Z,52.40
2019-03-01T16:02:54.104Z,50.20
2019-03-01T16:05:27.505Z,46.37
2019-03-01T16:08:00.467Z,49.23
2019-03-01T16:10:36.120Z,45.60
2019-03-01T16:13:11.992Z,44.40
2019-03-01T16:15:43.409Z,43.77
2019-03-01T16:18:16.527Z,41.23
2019-03-01T16:20:49.551Z,39.53
2019-03-01T16:23:22.547Z,39.33
2019-03-01T16:25:56.413Z,40.57
2019-03-01T16:28:31.175Z,41.00
2019-03-01T16:31:05.008Z,37.37
2019-03-01T16:33:38.126Z,42.77
2019-03-01T16:36:26.457Z,38.13
2019-03-01T16:38:59.471Z,38.90
2019-03-01T16:41:32.347Z,38.33
2019-03-01T16:44:09.248Z,39.97
2019-03-01T16:46:42.225Z,41.40
2019-03-01T16:49:15.231Z,36.50
2019-03-01T16:51:50.660Z,34.70
2019-03-01T16:54:23.117Z,39.80
2019-03-01T16:56:56.166Z,38.73
2019-03-01T16:59:29.291Z,38.80
2019-03-01T17:02:05.983Z,38.83
2019-03-01T17:04:37.033Z,41.40
2019-03-01T17:07:17.547Z,42.97
2019-03-01T17:09:51.076Z,39.43
2019-03-01T17:12:25.548Z,40.67
2019-03-01T17:14:58.403Z,37.33
2019-03-01T17:17:33.052Z,39.07
2019-03-01T17:20:07.547Z,35.60
2019-03-01T17:22:43.432Z,32.17
2019-03-01T17:25:16.892Z,36.47
2019-03-01T17:27:49.987Z,37.50
2019-03-01T17:30:24.322Z,37.27
2019-03-01T17:32:57.217Z,39.60
2019-03-01T17:35:30.373Z,37.83
2019-03-01T17:38:07.438Z,40.17
2019-03-01T17:40:39.163Z,39.47
2019-03-01T17:43:12.234Z,37.10
2019-03-01T17:45:45.283Z,38.43
2019-03-01T17:48:18.348Z,39.30
2019-03-01T17:50:53.011Z,37.80
2019-03-01T17:53:26.098Z,37.93
2019-03-01T17:55:59.090Z,35.50
2019-03-01T17:58:32.514Z,38.47
2019-03-01T18:01:05.534Z,35.00
2019-03-01T18:03:38.541Z,34.20
2019-03-01T18:06:12.881Z,34.13
2019-03-01T18:08:46.435Z,36.83
2019-03-01T18:11:19.357Z,33.83
2019-03-01T18:13:52.407Z,34.73
2019-03-01T18:16:25.703Z,35.50
2019-03-01T18:18:58.618Z,36.77
2019-03-01T18:21:35.493Z,34.53
2019-03-01T18:24:11.067Z,34.00
2019-03-01T18:26:43.257Z,37.70
2019-03-01T18:29:16.380Z,36.97
2019-03-01T18:31:50.284Z,36.47
2019-03-01T18:34:23.458Z,36.83
2019-03-01T18:36:58.655Z,38.13
2019-03-01T18:39:31.900Z,39.70
2019-03-01T18:42:04.982Z,37.07
2019-03-01T18:44:37.853Z,38.63
2019-03-01T18:47:10.919Z,37.63
2019-03-01T18:49:45.531Z,34.43
2019-03-01T18:52:20.198Z,35.63
2019-03-01T18:54:53.333Z,39.97
2019-03-01T18:57:26.173Z,39.30
2019-03-01T18:59:59.921Z,35.57
2019-03-01T19:02:34.070Z,37.37
2019-03-01T19:05:06.974Z,40.33
2019-03-01T19:07:40.110Z,38.17
2019-03-01T19:10:14.194Z,67.63
2019-03-01T19:12:48.448Z,33.63
2019-03-01T19:15:22.139Z,36.27
2019-03-01T19:17:55.313Z,33.40
2019-03-01T19:20:28.595Z,33.60
2019-03-01T19:23:01.529Z,33.57
2019-03-01T19:25:34.502Z,32.77
2019-03-01T19:28:07.419Z,32.30
2019-03-01T19:30:40.331Z,32.73
2019-03-01T19:33:13.923Z,30.00
2019-03-01T19:35:47.114Z,28.87
2019-03-01T19:38:21.808Z,31.27
2019-03-01T19:40:55.181Z,28.93
2019-03-01T19:43:28.366Z,30.00
2019-03-01T19:46:01.264Z,26.00
2019-03-01T19:48:34.583Z,28.00
2019-03-01T19:51:09.181Z,27.93
2019-03-01T19:53:42.185Z,27.03
2019-03-01T19:56:15.449Z,27.73
2019-03-01T19:58:48.917Z,39.63
2019-03-01T20:01:24.825Z,29.60
2019-03-01T20:03:57.648Z,28.20
2019-03-01T20:06:30.578Z,28.73
2019-03-01T20:09:05.276Z,25.87
2019-03-01T20:11:52.903Z,29.33
2019-03-01T20:14:26.039Z,29.20
2019-03-01T20:16:59.109Z,28.70
2019-03-01T20:19:32.156Z,28.40
2019-03-01T20:22:05.008Z,30.83
2019-03-01T20:24:40.448Z,30.50
2019-03-01T20:27:13.111Z,29.67
2019-03-01T20:29:46.155Z,31.13
2019-03-01T20:32:19.155Z,30.20
2019-03-01T20:34:52.494Z,30.70
2019-03-01T20:37:27.840Z,29.77
2019-03-01T20:40:00.542Z,29.33
2019-03-01T20:42:33.604Z,29.10
2019-03-01T20:45:10.755Z,29.20
2019-03-01T20:47:44.790Z,31.50
2019-03-01T20:50:17.950Z,31.00
2019-03-01T20:52:52.101Z,30.97
2019-03-01T20:55:25.092Z,31.17
2019-03-01T20:57:59.705Z,31.20
2019-03-01T21:00:32.973Z,35.40
2019-03-01T21:03:05.979Z,32.30
2019-03-01T21:05:38.756Z,33.47
2019-03-01T21:08:11.750Z,32.50
2019-03-01T21:10:46.851Z,31.67
2019-03-01T21:13:19.748Z,31.43
2019-03-01T21:15:53.308Z,32.70
2019-03-01T21:18:26.181Z,33.53
2019-03-01T21:20:59.143Z,33.00
2019-03-01T21:23:32.271Z,33.93
2019-03-01T21:26:05.177Z,32.23
2019-03-01T21:28:37.997Z,33.67
2019-03-01T21:31:10.951Z,38.03
2019-03-01T21:33:43.964Z,33.43
2019-03-01T21:36:16.885Z,34.17
2019-03-01T21:38:50.312Z,34.23
2019-03-01T21:41:23.692Z,33.80
2019-03-01T21:43:56.513Z,34.00
2019-03-01T21:46:30.479Z,32.53
2019-03-01T21:49:04.575Z,33.63
2019-03-01T21:51:37.582Z,34.23
2019-03-01T21:54:12.642Z,33.77
2019-03-01T21:56:55.395Z,33.77
2019-03-01T21:59:20.391Z,29.43
2019-03-01T22:01:53.240Z,31.33
2019-03-01T22:04:26.121Z,31.30
2019-03-01T22:07:01.857Z,31.53
2019-03-01T22:09:34.000Z,33.17
2019-03-01T22:12:07.018Z,29.67
2019-03-01T22:14:40.040Z,30.20
2019-03-01T22:17:13.617Z,30.03
2019-03-01T22:19:46.828Z,29.87
2019-03-01T22:22:19.661Z,29.40
2019-03-01T22:24:52.668Z,28.27
2019-03-01T22:27:26.251Z,29.80
2019-03-01T22:29:59.263Z,30.20
2019-03-01T22:32:32.166Z,30.17
2019-03-01T22:35:08.471Z,29.07
2019-03-01T22:37:40.148Z,28.60
2019-03-01T22:40:13.632Z,29.40
2019-03-01T22:42:49.851Z,29.97
2019-03-01T22:45:21.177Z,28.67
2019-03-01T22:47:54.200Z,28.77
2019-03-01T22:50:27.366Z,29.17
2019-03-01T22:53:03.186Z,28.80
2019-03-01T22:55:36.772Z,27.83
2019-03-01T22:58:09.933Z,28.93
2019-03-01T23:01:15.857Z,28.20
2019-03-01T23:03:54.926Z,28.27
2019-03-01T23:06:27.622Z,28.50
2019-03-01T23:09:00.541Z,27.87
2019-03-01T23:11:33.725Z,28.13
2019-03-01T23:14:06.676Z,29.67
2019-03-01T23:16:39.954Z,29.90
2019-03-01T23:19:16.094Z,31.03
2019-03-01T23:21:47.831Z,30.23
2019-03-01T23:24:20.798Z,29.93
2019-03-01T23:26:56.745Z,29.40
2019-03-01T23:29:28.787Z,27.60
2019-03-01T23:32:01.751Z,28.80
2019-03-01T23:34:43.778Z,28.07
2019-03-01T23:37:16.909Z,30.60
2019-03-01T23:39:50.042Z,27.93
2019-03-01T23:42:23.063Z,28.43
2019-03-01T23:44:56.064Z,31.13
2019-03-01T23:47:28.983Z,31.60
2019-03-01T23:50:01.823Z,32.33
2019-03-01T23:52:35.165Z,31.63
2019-03-01T23:55:08.253Z,32.53
2019-03-01T23:57:41.958Z,32.87
